Time;durP1;ratioP1;P1;durP2;ratioP2;P2;SDS_P1;SDS_P2;PMS_P1;PMS_P2;Temp;Humidity;BMP_temperature;BMP_pressure;BME280_temperature;BME280_humidity;BME280_pressure;Samples;Min_cycle;Max_cycle;Signal;HPM_P1;HPM_P2
2021/12/04 00:01:42;;;;;;;;;;;;;;;;;;;;;
2021/12/04 00:05:03;;;;;;;2.92;1.55;;;;;;;6.47;100.00;97944.25;6112459;23;20036;-51
2021/12/04 00:08:09;;;;;;;2.00;1.13;;;;;;;6.48;100.00;97950.50;6032056;23;20058;-51
2021/12/04 00:11:13;;;;;;;2.63;1.55;;;;;;;6.52;100.00;97940.00;6177485;22;20024;-51
2021/12/04 00:14:16;;;;;;;8.73;2.05;;;;;;;6.59;100.00;97940.28;6182364;23;20044;-51
2021/12/04 00:17:19;;;;;;;13.80;1.70;;;;;;;6.57;100.00;97940.00;6216735;22;20092;-51
2021/12/04 00:20:24;;;;;;;1.35;1.27;;;;;;;6.60;100.00;97941.03;6182309;23;20024;-51
2021/12/04 00:23:27;;;;;;;4.18;1.50;;;;;;;6.65;100.00;97926.47;6182422;23;20365;-57
2021/12/04 00:26:42;;;;;;;;;;;;;;;;;;;;;
2021/12/04 00:29:53;;;;;;;2.75;1.95;;;;;;;6.59;100.00;97918.16;6047705;23;20146;-51
2021/12/04 00:33:02;;;;;;;1.80;1.50;;;;;;;6.55;100.00;97900.28;6010411;23;20053;-50
2021/12/04 00:36:22;;;;;;;;;;;;;;;;;;;;;
2021/12/04 00:49:39;;;;;;;7.13;2.20;;;;;;;6.78;100.00;97879.75;6179402;22;20408;-51
2021/12/04 00:53:01;;;;;;;;;;;;;;;;;;;;;
2021/12/04 00:56:21;;;;;;;;;;;;;;;;;;;;;
2021/12/04 00:59:36;;;;;;;;;;;;;;;;;;;;;
2021/12/04 01:02:53;;;;;;;;;;;;;;;;;;;;;
2021/12/04 01:06:09;;;;;;;;;;;;;;;;;;;;;
2021/12/04 01:09:17;;;;;;;2.60;1.02;;;;;;;6.68;100.00;97859.09;6155685;22;20032;-51
2021/12/04 01:12:29;;;;;;;1.08;0.75;;;;;;;6.77;100.00;97850.59;6014230;23;20057;-51
2021/12/04 01:15:47;;;;;;;1.30;1.20;;;;;;;6.88;100.00;97856.16;6044783;23;20040;-51
2021/12/04 01:18:50;;;;;;;2.17;1.35;;;;;;;7.00;100.00;97857.69;6066215;23;20027;-51
2021/12/04 01:21:54;;;;;;;1.38;1.20;;;;;;;6.92;100.00;97848.38;6175825;22;20024;-51
2021/12/04 01:24:56;;;;;;;2.53;1.42;;;;;;;6.92;100.00;97839.28;6167361;23;20023;-51
2021/12/04 01:28:13;;;;;;;;;;;;;;;;;;;;;
2021/12/04 01:31:28;;;;;;;;;;;;;;;;;;;;;
2021/12/04 01:34:45;;;;;;;;;;;;;;;;;;;;;
2021/12/04 01:38:02;;;;;;;;;;;;;;;;;;;;;
2021/12/04 01:41:12;;;;;;;0.95;0.82;;;;;;;7.05;100.00;97812.66;5997074;23;20107;-52
2021/12/04 01:44:15;;;;;;;4.68;1.05;;;;;;;7.02;100.00;97810.16;6174973;23;20028;-51
2021/12/04 01:47:20;;;;;;;2.08;1.52;;;;;;;7.01;100.00;97812.16;6184318;23;20064;-52
2021/12/04 01:50:23;;;;;;;0.98;0.88;;;;;;;7.09;100.00;97821.47;6201307;23;20492;-51
2021/12/04 01:53:26;;;;;;;3.80;1.42;;;;;;;7.08;100.00;97816.44;6180627;23;20464;-51
2021/12/04 01:56:33;;;;;;;2.78;0.98;;;;;;;7.23;100.00;97809.44;6182263;23;20072;-51
2021/12/04 01:59:53;;;;;;;2.40;1.05;;;;;;;7.21;100.00;97809.16;6139090;23;20529;-51
2021/12/04 02:03:03;;;;;;;2.42;0.90;;;;;;;7.23;100.00;97803.88;6071731;23;20048;-52
2021/12/04 02:06:17;;;;;;;;;;;;;;;;;;;;;
2021/12/04 02:09:30;;;;;;;;;;;;;;;;;;;;;
2021/12/04 02:12:51;;;;;;;;;;;;;;;;;;;;;
2021/12/04 02:16:01;;;;;;;0.38;0.38;;;;;;;7.41;100.00;97797.81;6033250;23;20029;-49
2021/12/04 02:19:05;;;;;;;2.17;1.63;;;;;;;7.59;100.00;97794.56;6193704;23;20024;-50
2021/12/04 02:22:08;;;;;;;2.28;0.90;;;;;;;7.59;100.00;97791.78;6184112;22;20067;-49
2021/12/04 02:25:11;;;;;;;7.30;1.95;;;;;;;7.61;100.00;97792.03;6183919;23;20090;-49
2021/12/04 02:28:14;;;;;;;5.43;1.52;;;;;;;7.56;100.00;97786.47;6182958;22;20027;-49
2021/12/04 02:31:17;;;;;;;6.53;1.80;;;;;;;7.54;100.00;97789.00;6184275;23;20397;-49
2021/12/04 02:34:23;;;;;;;3.13;1.00;;;;;;;7.59;100.00;97789.00;6184419;23;20024;-49
2021/12/04 02:37:26;;;;;;;16.42;1.02;;;;;;;7.61;100.00;97777.41;6184447;22;20079;-49
2021/12/04 02:40:29;;;;;;;5.90;1.02;;;;;;;7.62;100.00;97770.63;6182647;23;20032;-49
2021/12/04 02:43:34;;;;;;;5.35;1.35;;;;;;;7.64;100.00;97766.06;6182856;23;20100;-49
2021/12/04 02:46:37;;;;;;;5.15;3.60;;;;;;;7.65;100.00;97761.28;6183961;22;20024;-48
2021/12/04 02:49:40;;;;;;;2.35;1.08;;;;;;;7.65;100.00;97756.50;6184127;23;20104;-49
2021/12/04 02:52:44;;;;;;;5.38;2.00;;;;;;;7.70;100.00;97757.00;6183477;22;20023;-49
2021/12/04 02:55:47;;;;;;;10.90;2.15;;;;;;;7.63;100.00;97755.50;6183746;23;20461;-49
2021/12/04 02:58:54;;;;;;;3.72;1.05;;;;;;;7.73;100.00;97750.47;6183376;22;20103;-49
2021/12/04 03:01:58;;;;;;;2.88;1.00;;;;;;;7.84;100.00;97750.44;6183960;22;20452;-49
2021/12/04 03:05:06;;;;;;;0.40;0.40;;;;;;;7.89;100.00;97738.56;6183929;23;20091;-49
2021/12/04 03:08:09;;;;;;;1.77;1.23;;;;;;;8.02;100.00;97738.78;6216174;22;20354;-49
2021/12/04 03:11:12;;;;;;;1.00;0.32;;;;;;;8.18;100.00;97741.50;6183520;23;20028;-49
2021/12/04 03:14:16;;;;;;;0.85;0.82;;;;;;;8.26;100.00;97731.41;6183732;23;20024;-50
2021/12/04 03:17:22;;;;;;;0.50;0.50;;;;;;;8.47;100.00;97731.78;6217775;22;20059;-49
2021/12/04 03:20:24;;;;;;;0.20;0.10;;;;;;;8.67;100.00;97731.44;6183966;23;20028;-49
2021/12/04 03:23:34;;;;;;;0.90;0.30;;;;;;;8.77;100.00;97734.66;6183495;23;21105;-49
2021/12/04 03:26:38;;;;;;;1.02;0.95;;;;;;;8.78;100.00;97731.34;6183570;22;20074;-50
2021/12/04 03:29:47;;;;;;;0.70;0.45;;;;;;;8.87;100.00;97749.72;6183565;23;20541;-52
2021/12/04 03:42:39;;;;;;;24.95;1.27;;;;;;;9.00;100.00;97811.72;6182915;22;20524;-54
2021/12/04 03:45:45;;;;;;;0.52;0.52;;;;;;;8.78;100.00;97803.50;6183454;23;20032;-55
2021/12/04 03:51:51;;;;;;;0.10;0.10;;;;;;;8.54;100.00;97797.81;6183390;22;20207;-55
2021/12/04 03:54:54;;;;;;;0.80;0.75;;;;;;;8.48;100.00;97786.00;6182404;23;20024;-55
2021/12/04 03:57:57;;;;;;;0.20;0.20;;;;;;;8.45;100.00;97795.34;6183704;22;20405;-55
2021/12/04 04:01:00;;;;;;;0.88;0.50;;;;;;;8.47;100.00;97794.84;6183504;23;20032;-55
2021/12/04 04:04:03;;;;;;;0.10;0.10;;;;;;;8.46;100.00;97791.31;6182128;23;20090;-55
2021/12/04 04:07:07;;;;;;;0.20;0.20;;;;;;;8.38;100.00;97784.81;6183157;22;20070;-54
2021/12/04 04:10:10;;;;;;;0.95;0.75;;;;;;;8.36;100.00;97781.75;6183120;23;20032;-54
2021/12/04 04:13:13;;;;;;;0.10;0.10;;;;;;;8.42;100.00;97788.06;6183363;22;20148;-53
2021/12/04 04:16:16;;;;;;;0.40;0.30;;;;;;;8.38;100.00;97787.59;6182860;23;20044;-53
2021/12/04 04:19:19;;;;;;;0.57;0.57;;;;;;;8.27;100.00;97782.81;6183274;23;20023;-55
2021/12/04 04:22:22;;;;;;;0.15;0.15;;;;;;;8.34;100.00;97770.44;6183059;22;20154;-54
2021/12/04 04:25:25;;;;;;;0.32;0.17;;;;;;;8.42;100.00;97778.97;6217104;23;20043;-54
2021/12/04 04:28:28;;;;;;;0.30;0.20;;;;;;;8.39;100.00;97773.19;6183241;23;20071;-55
2021/12/04 04:31:33;;;;;;;0.20;0.20;;;;;;;8.38;100.00;97768.16;6182234;22;20032;-54
2021/12/04 04:34:38;;;;;;;3.38;0.70;;;;;;;8.42;100.00;97760.31;6182823;23;20163;-53
2021/12/04 05:10:19;;;;;;;0.20;0.20;;;;;;;8.08;100.00;97770.00;6182219;23;20163;-51
2021/12/04 05:11:07;;;;;;;0.10;0.10;;;;;;;8.07;100.00;97763.72;6182742;23;20405;-50
2021/12/04 05:14:19;;;;;;;0.10;0.10;;;;;;;7.96;100.00;97763.00;6182500;23;20075;-50
2021/12/04 05:20:36;;;;;;;0.30;0.30;;;;;;;7.86;100.00;97764.53;6181667;23;20052;-50
2021/12/04 05:23:42;;;;;;;0.15;0.15;;;;;;;7.80;100.00;97767.31;6182531;22;20047;-50
2021/12/04 05:26:45;;;;;;;3.72;0.95;;;;;;;7.81;100.00;97762.53;6181800;22;20044;-50
2021/12/04 05:29:48;;;;;;;4.05;0.65;;;;;;;7.69;100.00;97772.88;6181940;23;20043;-50
2021/12/04 05:32:51;;;;;;;0.10;0.10;;;;;;;7.68;100.00;97770.63;6182214;22;20035;-49
2021/12/04 05:35:54;;;;;;;0.20;0.20;;;;;;;7.74;100.00;97779.66;6182242;23;20153;-50
2021/12/04 05:38:57;;;;;;;1.73;0.28;;;;;;;7.81;100.00;97781.94;6182356;23;20109;-50
2021/12/04 05:42:01;;;;;;;19.85;0.60;;;;;;;7.81;100.00;97779.16;6182103;22;20024;-49
2021/12/04 05:45:07;;;;;;;12.63;0.65;;;;;;;7.61;100.00;97780.94;6182329;23;20524;-49
2021/12/04 05:48:19;;;;;;;20.73;0.55;;;;;;;7.46;100.00;97780.47;6182671;22;20056;-49
2021/12/04 05:58:32;;;;;;;2.85;1.55;;;;;;;7.24;100.00;97779.72;6180996;23;20024;-49
2021/12/04 06:01:35;;;;;;;1.90;0.55;;;;;;;7.23;100.00;97781.75;6181474;22;20024;-49
2021/12/04 06:04:38;;;;;;;0.20;0.20;;;;;;;7.09;100.00;97777.19;6182178;23;20354;-49
2021/12/04 06:07:41;;;;;;;1.33;0.65;;;;;;;7.06;100.00;97767.13;6180963;23;20528;-50
2021/12/04 06:10:44;;;;;;;0.20;0.20;;;;;;;7.05;100.00;97765.63;6181762;23;20520;-50
2021/12/04 06:13:47;;;;;;;0.40;0.40;;;;;;;7.12;100.00;97776.19;6182420;22;20027;-50
2021/12/04 06:16:50;;;;;;;0.20;0.20;;;;;;;7.03;100.00;97768.13;6181978;23;20036;-50
2021/12/04 06:23:16;;;;;;;0.10;0.10;;;;;;;6.80;100.00;97766.59;6181551;22;20476;-50
2021/12/04 06:26:19;;;;;;;0.65;0.65;;;;;;;6.80;100.00;97764.56;6181872;23;20468;-50
2021/12/04 06:29:24;;;;;;;0.30;0.20;;;;;;;6.65;100.00;97766.06;6182179;23;20094;-50
2021/12/04 06:32:26;;;;;;;0.10;0.10;;;;;;;6.72;100.00;97771.09;6181426;22;20051;-50
2021/12/04 06:35:31;;;;;;;0.30;0.30;;;;;;;6.72;100.00;97760.03;6182060;23;20028;-49
2021/12/04 06:38:34;;;;;;;0.10;0.10;;;;;;;6.70;100.00;97763.31;6181923;23;20024;-49
2021/12/04 06:41:37;;;;;;;0.38;0.35;;;;;;;6.65;100.00;97760.53;6181939;22;20116;-49
2021/12/04 06:44:40;;;;;;;0.63;0.63;;;;;;;6.66;100.00;97750.97;6183701;23;20056;-49
2021/12/04 06:47:52;;;;;;;0.40;0.40;;;;;;;6.66;100.00;97762.81;6184365;23;20019;-50
2021/12/04 06:51:00;;;;;;;;;;;;;;;6.63;100.00;97757.50;6184421;23;20449;-50
2021/12/04 06:54:07;;;;;;;6.88;0.65;;;;;;;6.58;100.00;97761.03;6183678;23;19919;-49
2021/12/04 06:57:13;;;;;;;0.13;0.13;;;;;;;6.43;100.00;97755.69;6183374;22;20469;-49
2021/12/04 07:00:16;;;;;;;0.80;0.80;;;;;;;6.40;100.00;97767.00;6183668;23;20031;-49
2021/12/04 07:03:20;;;;;;;0.25;0.25;;;;;;;6.32;100.00;97757.69;6183588;22;20029;-49
2021/12/04 07:06:22;;;;;;;0.30;0.30;;;;;;;6.28;100.00;97748.88;6183863;23;20024;-50
2021/12/04 07:09:26;;;;;;;2.15;0.70;;;;;;;6.23;100.00;97757.91;6184216;23;20043;-49
2021/12/04 07:12:29;;;;;;;0.20;0.20;;;;;;;6.11;100.00;97752.31;6183832;22;20094;-49
2021/12/04 07:15:32;;;;;;;1.95;0.93;;;;;;;6.07;100.00;97757.34;6183041;23;20028;-49
2021/12/04 07:18:38;;;;;;;0.45;0.45;;;;;;;6.04;100.00;97758.31;6182811;23;20549;-49
2021/12/04 07:21:41;;;;;;;0.25;0.25;;;;;;;6.00;100.00;97757.81;6183566;22;20024;-49
2021/12/04 07:24:45;;;;;;;0.40;0.40;;;;;;;6.11;100.00;97752.31;6183062;23;20056;-49
2021/12/04 07:27:50;;;;;;;0.10;0.10;;;;;;;6.21;100.00;97760.41;6183169;22;20102;-49
2021/12/04 07:30:53;;;;;;;1.38;0.47;;;;;;;6.31;100.00;97758.94;6183185;23;20024;-49
2021/12/04 07:33:56;;;;;;;0.13;0.13;;;;;;;6.28;100.00;97763.44;6183108;23;20028;-49
2021/12/04 07:36:59;;;;;;;0.20;0.20;;;;;;;6.16;100.00;97763.91;6183670;22;20059;-49
2021/12/04 07:40:03;;;;;;;0.15;0.15;;;;;;;6.34;100.00;97769.75;6183197;23;20147;-49
2021/12/04 07:43:06;;;;;;;0.22;0.22;;;;;;;6.47;100.00;97774.81;6183085;23;20048;-49
2021/12/04 07:46:09;;;;;;;0.25;0.25;;;;;;;6.58;100.00;97772.09;6183511;23;20079;-49
2021/12/04 07:49:13;;;;;;;0.63;0.40;;;;;;;6.69;100.00;97777.66;6183327;23;20056;-49
2021/12/04 07:52:16;;;;;;;0.10;0.10;;;;;;;6.64;100.00;97776.38;6182814;22;20028;-49
2021/12/04 07:55:19;;;;;;;0.20;0.20;;;;;;;6.67;100.00;97775.38;6183629;23;20063;-49
2021/12/04 07:58:22;;;;;;;0.47;0.45;;;;;;;6.66;100.00;97778.63;6183092;22;20023;-49
2021/12/04 08:01:25;;;;;;;0.55;0.45;;;;;;;6.63;100.00;97766.56;6182709;23;20140;-49
2021/12/04 08:04:29;;;;;;;1.35;1.20;;;;;;;6.55;100.00;97773.06;6182565;23;20079;-49
2021/12/04 08:07:31;;;;;;;0.30;0.30;;;;;;;6.64;100.00;97770.84;6181993;22;20897;-48
2021/12/04 08:10:35;;;;;;;2.38;1.17;;;;;;;6.77;100.00;97770.38;6183156;23;20024;-48
2021/12/04 08:13:38;;;;;;;0.60;0.57;;;;;;;6.89;100.00;97764.34;6182725;22;20397;-49
2021/12/04 08:16:40;;;;;;;0.28;0.28;;;;;;;6.88;100.00;97767.63;6182976;23;20452;-49
2021/12/04 08:19:43;;;;;;;0.50;0.50;;;;;;;6.86;100.00;97759.81;6183023;23;20023;-50
2021/12/04 08:22:47;;;;;;;0.50;0.50;;;;;;;6.88;100.00;97767.63;6182569;22;20477;-49
2021/12/04 08:25:50;;;;;;;5.50;2.00;;;;;;;7.05;100.00;97760.09;6182712;23;20398;-49
2021/12/04 08:28:54;;;;;;;9.07;1.98;;;;;;;7.06;100.00;97761.59;6182860;22;20139;-49
2021/12/04 08:31:56;;;;;;;1.55;0.60;;;;;;;7.12;100.00;97759.59;6183028;22;20079;-49
2021/12/04 08:35:02;;;;;;;2.95;0.98;;;;;;;7.27;100.00;97762.88;6182271;23;20087;-50
2021/12/04 08:38:10;;;;;;;2.35;0.70;;;;;;;7.26;100.00;97763.34;6183577;22;20087;-49
2021/12/04 08:41:17;;;;;;;1.42;1.33;;;;;;;7.25;100.00;97768.16;6182943;23;20322;-49
2021/12/04 08:44:20;;;;;;;5.32;1.67;;;;;;;7.32;100.00;97764.84;6181502;23;20028;-49
2021/12/04 08:47:23;;;;;;;15.13;2.55;;;;;;;7.36;100.00;97759.09;6182831;22;20095;-49
2021/12/04 08:50:29;;;;;;;0.20;0.20;;;;;;;7.43;100.00;97756.53;6182941;23;20075;-49
2021/12/04 08:53:32;;;;;;;1.27;0.80;;;;;;;7.54;100.00;97759.31;6182323;23;20052;-49
2021/12/04 08:56:35;;;;;;;2.95;0.17;;;;;;;7.52;100.00;97764.59;6182829;22;20083;-49
2021/12/04 08:59:38;;;;;;;5.40;0.85;;;;;;;7.64;100.00;97757.75;6182481;23;20044;-49
2021/12/04 09:02:43;;;;;;;0.95;0.77;;;;;;;7.64;100.00;97752.22;6182167;22;20032;-49
2021/12/04 09:05:47;;;;;;;1.35;0.60;;;;;;;7.57;100.00;97763.09;6181274;23;20354;-49
2021/12/04 09:08:51;;;;;;;5.80;0.50;;;;;;;7.39;100.00;97772.66;6182710;22;20075;-49
2021/12/04 09:12:00;;;;;;;0.10;0.10;;;;;;;7.36;100.00;97779.19;6182537;22;20024;-49
2021/12/04 09:15:05;;;;;;;2.15;0.32;;;;;;;7.37;100.00;97777.19;6182745;23;20147;-49
2021/12/04 09:18:09;;;;;;;1.00;0.20;;;;;;;7.37;100.00;97769.66;6182728;22;20115;-48
2021/12/04 09:21:13;;;;;;;1.00;0.50;;;;;;;7.52;100.00;97770.13;6182760;23;20028;-49
2021/12/04 09:24:21;;;;;;;0.10;0.10;;;;;;;7.58;100.00;97765.34;6182324;23;20082;-49
2021/12/04 10:01:03;;;;;;;2.08;0.93;;;;;;;8.39;100.00;97772.44;6181719;23;20028;-50
2021/12/04 10:20:53;;;;;;;0.17;0.17;;;;;;;9.01;100.00;97766.00;6184099;23;20023;-49
2021/12/04 10:34:10;;;;;;;7.22;0.85;;;;;;;9.16;100.00;97758.06;6213495;23;20027;-79
2021/12/04 10:37:22;;;;;;;6.03;0.55;;;;;;;9.32;100.00;97766.78;6212756;23;20398;-79
2021/12/04 10:40:38;;;;;;;0.22;0.20;;;;;;;9.29;100.00;97768.56;6213094;23;20055;-78
2021/12/04 10:43:41;;;;;;;0.30;0.30;;;;;;;9.22;100.00;97762.84;6213336;23;20024;-78
2021/12/04 10:47:06;;;;;;;0.10;0.10;;;;;;;9.02;100.00;97756.44;6213266;23;20079;-79
2021/12/04 10:53:23;;;;;;;0.10;0.10;;;;;;;9.18;100.00;97758.31;6214185;23;20023;-78
2021/12/04 10:59:51;;;;;;;0.30;0.30;;;;;;;9.09;100.00;97747.53;6213500;23;20023;-80
2021/12/04 11:03:04;;;;;;;0.30;0.30;;;;;;;9.08;100.00;97743.25;6212738;23;20359;-79
2021/12/04 11:43:04;;;;;;;0.93;0.52;;;;;;;9.89;100.00;97691.44;6244036;23;20034;-79
2021/12/04 11:46:20;;;;;;;1.33;0.55;;;;;;;9.83;100.00;97688.00;6243577;23;20344;-79
2021/12/04 11:49:26;;;;;;;0.20;0.10;;;;;;;9.73;100.00;97684.03;6224961;23;20031;-80
2021/12/04 11:52:29;;;;;;;0.20;0.20;;;;;;;9.77;100.00;97678.94;6224554;23;20027;-79
2021/12/04 11:55:36;;;;;;;0.93;0.22;;;;;;;9.86;100.00;97676.56;6243936;23;20160;-80
2021/12/04 11:58:45;;;;;;;8.57;0.50;;;;;;;9.83;100.00;97671.31;6243540;23;20472;-81
2021/12/04 12:01:57;;;;;;;0.22;0.20;;;;;;;9.98;100.00;97676.44;6243321;23;20027;-80
2021/12/04 12:05:00;;;;;;;4.18;0.45;;;;;;;10.08;100.00;97669.97;6225017;23;20343;-81
2021/12/04 12:08:05;;;;;;;0.20;0.20;;;;;;;9.93;100.00;97666.88;6225170;23;20031;-80
2021/12/04 12:11:12;;;;;;;0.30;0.30;;;;;;;10.09;100.00;97677.03;6224994;23;20027;-80
2021/12/04 12:14:16;;;;;;;1.17;1.02;;;;;;;10.27;100.00;97648.50;6224947;23;20028;-79
2021/12/04 12:17:33;;;;;;;1.80;0.38;;;;;;;10.35;100.00;97659.78;6243925;23;20087;-80
2021/12/04 12:21:21;;;;;;;1.10;0.63;;;;;;;10.42;100.00;97648.78;6243071;23;20027;-80
2021/12/04 12:37:51;;;;;;;0.55;0.45;;;;;;;10.36;100.00;97620.31;6243495;23;20343;-80
2021/12/04 12:41:05;;;;;;;0.32;0.32;;;;;;;10.29;100.00;97626.47;6242372;23;20382;-79
2021/12/04 12:44:14;;;;;;;0.20;0.20;;;;;;;10.29;100.00;97618.13;6243165;23;20034;-79
2021/12/04 12:47:18;;;;;;;0.45;0.38;;;;;;;10.13;100.00;97621.91;6225106;23;20023;-79
2021/12/04 12:50:33;;;;;;;0.20;0.20;;;;;;;10.15;100.00;97613.78;6243635;23;20069;-79
2021/12/04 12:53:46;;;;;;;4.57;0.40;;;;;;;10.13;100.00;97627.47;6243424;23;20411;-79
2021/12/04 12:56:58;;;;;;;0.40;0.40;;;;;;;10.00;100.00;97607.91;6243346;23;20338;-79
2021/12/04 13:14:29;;;;;;;0.25;0.10;;;;;;;10.00;100.00;97619.03;6242548;23;20085;-79
2021/12/04 13:17:32;;;;;;;0.45;0.45;;;;;;;9.92;100.00;97601.41;6243283;23;20089;-79
2021/12/04 13:20:35;;;;;;;0.40;0.40;;;;;;;9.73;100.00;97618.09;6242987;23;20023;-79
2021/12/04 13:23:39;;;;;;;0.38;0.15;;;;;;;9.72;100.00;97610.28;6242222;23;20091;-79
2021/12/04 13:26:47;;;;;;;0.20;0.20;;;;;;;9.52;100.00;97613.56;6242702;23;20023;-79
2021/12/04 13:30:10;;;;;;;0.75;0.75;;;;;;;9.36;100.00;97614.47;6242657;23;20135;-81
2021/12/04 13:33:13;;;;;;;0.20;0.20;;;;;;;9.45;100.00;97603.03;6224385;23;20034;-79
2021/12/04 13:36:29;;;;;;;0.60;0.47;;;;;;;9.37;100.00;97596.56;6224894;23;20127;-80
2021/12/04 13:39:32;;;;;;;0.40;0.40;;;;;;;9.33;100.00;97596.09;6243120;23;20023;-80
2021/12/04 13:42:37;;;;;;;0.55;0.40;;;;;;;9.42;100.00;97604.09;6224444;23;20418;-80
2021/12/04 13:45:41;;;;;;;0.50;0.28;;;;;;;9.52;100.00;97591.31;6243231;23;20026;-80
2021/12/04 13:48:45;;;;;;;0.30;0.30;;;;;;;9.59;100.00;97602.63;6243489;23;20086;-79
2021/12/04 13:51:58;;;;;;;0.20;0.20;;;;;;;9.56;100.00;97606.44;6243712;23;20145;-79
2021/12/04 13:55:09;;;;;;;2.50;0.65;;;;;;;9.52;100.00;97608.00;6245428;23;20088;-80
2021/12/04 13:58:12;;;;;;;0.65;0.40;;;;;;;9.39;100.00;97622.53;6245894;23;20150;-80
2021/12/04 14:01:16;;;;;;;0.32;0.32;;;;;;;9.48;100.00;97629.75;6226496;23;20477;-80
2021/12/04 14:04:20;;;;;;;0.40;0.40;;;;;;;9.47;100.00;97611.59;6245242;23;20027;-79
2021/12/04 14:07:23;;;;;;;0.20;0.20;;;;;;;9.40;100.00;97628.84;6226799;23;20070;-80
2021/12/04 14:10:30;;;;;;;1.15;0.57;;;;;;;9.24;100.00;97621.44;6226630;23;20066;-80
2021/12/04 14:13:33;;;;;;;7.82;0.70;;;;;;;9.16;100.00;97610.13;6226421;23;20089;-80
2021/12/04 14:16:37;;;;;;;0.30;0.30;;;;;;;9.18;100.00;97619.47;6244906;23;20070;-80
2021/12/04 14:19:42;;;;;;;3.70;1.70;;;;;;;9.11;100.00;97624.84;6226422;23;20074;-80
2021/12/04 14:22:50;;;;;;;0.47;0.47;;;;;;;8.97;100.00;97632.28;6225985;23;20098;-81
2021/12/04 14:25:56;;;;;;;0.52;0.47;;;;;;;8.71;100.00;97628.47;6245110;23;20031;-81
2021/12/04 14:28:59;;;;;;;7.03;0.50;;;;;;;8.54;100.00;97633.41;6225442;23;20023;-80
2021/12/04 14:32:05;;;;;;;0.95;0.82;;;;;;;8.31;100.00;97646.69;6243857;23;20047;-80
2021/12/04 14:35:14;;;;;;;1.80;0.52;;;;;;;8.21;100.00;97650.97;6244371;23;20023;-81
2021/12/04 14:38:22;;;;;;;0.40;0.40;;;;;;;8.06;100.00;97667.19;6244611;23;20074;-82
2021/12/04 14:41:30;;;;;;;0.20;0.20;;;;;;;7.98;100.00;97660.69;6226194;23;20027;-81
2021/12/04 14:44:35;;;;;;;0.10;0.10;;;;;;;7.81;100.00;97646.16;6225915;23;20027;-82
2021/12/04 14:47:45;;;;;;;0.45;0.45;;;;;;;7.94;100.00;97662.97;6225919;23;20035;-82
2021/12/04 14:50:51;;;;;;;0.45;0.43;;;;;;;8.02;100.00;97655.63;6226369;23;20038;-82
2021/12/04 14:53:56;;;;;;;0.40;0.40;;;;;;;8.09;100.00;97655.84;6225823;23;20051;-82
2021/12/04 14:57:01;;;;;;;1.15;1.15;;;;;;;8.13;100.00;97661.13;6226403;23;20093;-83
2021/12/04 15:00:10;;;;;;;14.40;1.17;;;;;;;8.23;100.00;97662.31;6244233;23;20027;-82
2021/12/04 15:03:18;;;;;;;0.82;0.20;;;;;;;8.17;100.00;97653.28;6243412;23;20027;-82
2021/12/04 15:06:25;;;;;;;2.65;0.38;;;;;;;8.15;100.00;97664.13;6226460;23;20028;-82
2021/12/04 15:09:28;;;;;;;4.10;0.65;;;;;;;8.04;100.00;97672.50;6226764;23;20023;-82
2021/12/04 15:12:35;;;;;;;0.30;0.30;;;;;;;8.01;100.00;97670.75;6225969;23;20398;-84
2021/12/04 15:15:38;;;;;;;0.98;0.55;;;;;;;8.04;100.00;97678.03;6245633;23;20038;-83
2021/12/04 15:18:41;;;;;;;8.27;1.58;;;;;;;7.97;100.00;97673.78;6225795;23;20343;-82
2021/12/04 15:21:53;;;;;;;0.38;0.30;;;;;;;7.93;100.00;97658.69;6250395;23;20485;-83
2021/12/04 15:24:56;;;;;;;0.93;0.93;;;;;;;7.77;100.00;97673.38;6226914;23;20082;-83
2021/12/04 15:28:00;;;;;;;0.45;0.45;;;;;;;7.75;100.00;97671.13;6245436;23;20026;-84
2021/12/04 15:31:04;;;;;;;10.32;0.85;;;;;;;7.73;100.00;97668.13;6225652;23;20074;-84
2021/12/04 15:53:53;;;;;;;4.63;0.40;;;;;;;8.06;100.00;97661.66;6221221;23;20472;-53
2021/12/04 15:56:56;;;;;;;1.42;0.75;;;;;;;8.01;100.00;97645.81;6221345;22;20028;-53
2021/12/04 16:00:09;;;;;;;0.68;0.40;;;;;;;7.98;100.00;97642.03;6191508;23;20020;-52
2021/12/04 16:03:16;;;;;;;8.38;0.68;;;;;;;8.04;100.00;97642.75;6191572;23;20048;-53
2021/12/04 16:06:19;;;;;;;0.30;0.25;;;;;;;8.09;100.00;97638.47;6190915;23;20024;-53
2021/12/04 16:09:40;;;;;;;0.75;0.68;;;;;;;8.01;100.00;97638.22;6221344;23;20071;-52
2021/12/04 16:12:52;;;;;;;7.30;1.88;;;;;;;7.93;100.00;97642.06;6221214;23;20027;-52
2021/12/04 16:15:57;;;;;;;0.50;0.30;;;;;;;7.92;100.00;97640.56;6220894;22;20528;-53
2021/12/04 16:19:01;;;;;;;0.35;0.28;;;;;;;7.88;100.00;97645.63;6197096;23;20095;-54
2021/12/04 16:22:08;;;;;;;0.32;0.32;;;;;;;7.80;100.00;97650.19;6190913;23;20024;-54
2021/12/04 16:25:15;;;;;;;1.42;0.90;;;;;;;7.79;100.00;97645.91;6191044;23;20060;-55
2021/12/04 16:40:45;;;;;;;0.45;0.45;;;;;;;7.59;100.00;97647.75;6190426;23;20027;-53
2021/12/04 16:43:48;;;;;;;0.30;0.30;;;;;;;7.61;100.00;97672.94;6190786;23;20024;-53
2021/12/04 16:46:52;;;;;;;0.32;0.32;;;;;;;7.64;100.00;97669.13;6188461;23;20066;-54
2021/12/04 16:49:56;;;;;;;0.20;0.20;;;;;;;7.62;100.00;97704.88;6184092;23;20029;-54
2021/12/04 16:59:38;;;;;;;2.47;0.43;;;;;;;7.39;100.00;97720.06;6210028;23;20318;-54
2021/12/04 17:02:42;;;;;;;2.05;0.50;;;;;;;7.36;100.00;97712.00;6213995;22;20023;-54
2021/12/04 17:05:46;;;;;;;0.40;0.40;;;;;;;7.34;100.00;97709.72;6214188;22;20380;-54
2021/12/04 17:08:49;;;;;;;0.15;0.15;;;;;;;7.33;100.00;97710.25;6213766;23;20034;-54
2021/12/04 17:11:56;;;;;;;0.60;0.60;;;;;;;7.32;100.00;97701.19;6213168;23;20024;-54
2021/12/04 17:15:01;;;;;;;0.30;0.30;;;;;;;7.33;100.00;97701.94;6116036;23;20033;-54
2021/12/04 17:18:10;;;;;;;0.28;0.28;;;;;;;7.42;100.00;97709.97;6218315;22;20400;-84
2021/12/04 17:21:13;;;;;;;12.73;0.80;;;;;;;7.45;100.00;97722.81;6243255;23;20070;-80
2021/12/04 17:24:23;;;;;;;0.20;0.20;;;;;;;7.43;100.00;97726.09;6247991;23;20104;-79
2021/12/04 17:27:26;;;;;;;0.20;0.20;;;;;;;7.54;100.00;97717.75;6246090;23;20397;-82
2021/12/04 17:30:29;;;;;;;0.17;0.17;;;;;;;7.51;100.00;97713.22;6245349;23;20103;-82
2021/12/04 17:33:32;;;;;;;3.13;0.57;;;;;;;7.62;100.00;97696.56;6226258;23;20473;-81
2021/12/04 17:36:37;;;;;;;0.20;0.20;;;;;;;7.67;100.00;97713.72;6230661;23;20154;-85
2021/12/04 17:50:58;;;;;;;0.30;0.22;;;;;;;7.71;100.00;97742.63;5102729;27;20415;-53
2021/12/04 17:54:31;;;;;;;0.10;0.10;;;;;;;7.77;100.00;97745.41;4920591;28;20566;-54
2021/12/04 17:57:42;;;;;;;0.20;0.20;;;;;;;7.63;100.00;97753.50;4939702;28;20049;-54
2021/12/04 18:00:56;;;;;;;0.10;0.10;;;;;;;7.75;100.00;97767.34;4928756;28;20050;-54
2021/12/04 18:04:06;;;;;;;1.27;0.68;;;;;;;7.70;100.00;97774.38;4919346;28;20081;-53
2021/12/04 18:07:23;;;;;;;0.10;0.10;;;;;;;7.64;100.00;97765.34;4937967;29;20050;-53
2021/12/04 18:10:32;;;;;;;0.20;0.20;;;;;;;7.56;100.00;97786.47;4921723;28;20051;-53
2021/12/04 18:13:39;;;;;;;0.30;0.30;;;;;;;7.51;100.00;97790.75;1677178;28;53332712;-53
2021/12/04 18:19:48;;;;;;;0.10;0.10;;;;;;;7.44;100.00;97801.59;5054506;27;20401;-52
2021/12/04 18:22:52;;;;;;;1.55;0.85;;;;;;;7.37;100.00;97813.19;5012223;28;20067;-53
2021/12/04 18:25:56;;;;;;;2.53;0.65;;;;;;;7.26;100.00;97800.09;4979574;28;20609;-53
2021/12/04 18:33:13;;;;;;;0.15;0.15;;;;;;;7.23;100.00;97814.97;4970262;28;20124;-52
2021/12/04 18:37:01;;;;;;;0.10;0.10;;;;;;;7.20;100.00;97820.72;5006504;28;20069;-53
2021/12/04 18:45:15;;;;;;;0.10;0.10;;;;;;;7.29;100.00;97835.09;4987482;28;20150;-54
2021/12/04 18:52:22;;;;;;;0.10;0.10;;;;;;;7.30;100.00;97846.91;4986616;28;19928;-82
2021/12/04 18:55:27;;;;;;;0.25;0.25;;;;;;;7.38;100.00;97832.09;4972736;28;20125;-84
2021/12/04 18:58:42;;;;;;;0.20;0.20;;;;;;;7.33;100.00;97843.91;4978288;28;20435;-84
2021/12/04 19:01:47;;;;;;;7.47;0.57;;;;;;;7.39;100.00;97849.44;4967964;28;20105;-80
2021/12/04 19:04:51;;;;;;;0.30;0.30;;;;;;;7.42;100.00;97842.91;4969359;28;20046;-89
2021/12/04 19:07:55;;;;;;;15.40;5.90;;;;;;;7.46;100.00;97837.84;4968572;28;20145;-82
2021/12/04 19:10:59;;;;;;;4.68;1.75;;;;;;;7.47;100.00;97848.44;4979093;28;20054;-82
2021/12/04 19:14:03;;;;;;;0.20;0.20;;;;;;;7.49;100.00;97854.22;4981677;28;20054;-82
2021/12/04 19:17:07;;;;;;;0.20;0.20;;;;;;;7.55;100.00;97879.91;4969289;28;20063;-81
2021/12/04 19:20:12;;;;;;;0.10;0.10;;;;;;;7.56;100.00;97884.19;4969155;28;20054;-81
2021/12/04 19:23:16;;;;;;;3.85;0.55;;;;;;;7.57;100.00;97891.25;4968703;28;20121;-81
2021/12/04 19:26:20;;;;;;;0.88;0.82;;;;;;;7.65;100.00;97895.03;4967824;28;20093;-82